Time;durP1;ratioP1;P1;durP2;ratioP2;P2;SDS_P1;SDS_P2;PMS_P1;PMS_P2;Temp;Humidity;BMP_temperature;BMP_pressure;BME280_temperature;BME280_humidity;BME280_pressure;Samples;Min_cycle;Max_cycle;Signal;HPM_P1;HPM_P2
2021/07/12 00:00:39;;;;;;;13.90;12.90;;;20.80;99.90;;;;;;5049318;28;20701;-67
2021/07/12 00:03:06;;;;;;;13.13;12.13;;;20.80;99.90;;;;;;5049421;28;21276;-68
2021/07/12 00:05:35;;;;;;;13.60;12.70;;;20.80;99.90;;;;;;5051548;28;20195;-67
2021/07/12 00:08:00;;;;;;;13.13;12.07;;;20.90;99.90;;;;;;5049615;28;20619;-67
2021/07/12 00:10:28;;;;;;;14.23;13.00;;;20.80;99.90;;;;;;5051338;28;20608;-67
2021/07/12 00:12:59;;;;;;;12.80;11.70;;;20.80;99.90;;;;;;5051098;28;20306;-67
2021/07/12 00:15:28;;;;;;;12.50;11.60;;;20.80;99.90;;;;;;5048462;28;20674;-67
2021/07/12 00:17:56;;;;;;;12.40;11.50;;;20.80;99.90;;;;;;5050292;28;20766;-67
2021/07/12 00:20:25;;;;;;;13.00;11.90;;;20.80;99.90;;;;;;5051478;28;20609;-67
2021/07/12 00:22:52;;;;;;;13.70;12.53;;;20.80;99.90;;;;;;5051100;28;20615;-67
2021/07/12 00:25:19;;;;;;;12.80;11.80;;;20.80;99.90;;;;;;5048272;28;20736;-66
2021/07/12 00:27:45;;;;;;;12.90;11.90;;;20.80;99.90;;;;;;5038219;28;20631;-66
2021/07/12 00:30:16;;;;;;;12.77;11.70;;;20.70;99.90;;;;;;5043312;28;20598;-66
2021/07/12 00:32:48;;;;;;;12.90;12.00;;;20.70;99.90;;;;;;5049903;28;20761;-68
2021/07/12 00:35:17;;;;;;;13.13;12.03;;;20.70;99.90;;;;;;5050740;28;20643;-68
2021/07/12 00:37:44;;;;;;;11.50;10.70;;;20.70;99.90;;;;;;5050821;28;20685;-67
2021/07/12 00:40:12;;;;;;;12.63;11.63;;;20.70;99.90;;;;;;5050088;28;20583;-67
2021/07/12 00:42:39;;;;;;;13.30;12.20;;;20.70;99.90;;;;;;5049637;28;21193;-66
2021/07/12 00:45:12;;;;;;;13.70;12.70;;;20.70;99.90;;;;;;5050692;28;20601;-67
2021/07/12 00:47:38;;;;;;;12.67;11.67;;;20.70;99.90;;;;;;5050219;28;20583;-67
2021/07/12 00:50:07;;;;;;;12.73;11.73;;;20.70;99.90;;;;;;5049458;28;20724;-67
2021/07/12 00:52:37;;;;;;;13.17;12.07;;;20.60;99.90;;;;;;5048739;28;21215;-67
2021/07/12 00:55:18;;;;;;;12.20;11.20;;;20.60;99.90;;;;;;5050357;28;20588;-67
2021/07/12 00:57:50;;;;;;;12.00;11.10;;;20.60;99.90;;;;;;5048824;28;20666;-67
2021/07/12 01:00:23;;;;;;;11.20;10.30;;;20.60;99.90;;;;;;5050460;28;20578;-67
2021/07/12 01:02:49;;;;;;;11.70;10.60;;;20.50;99.90;;;;;;5050289;28;20979;-67
2021/07/12 01:05:31;;;;;;;12.67;11.57;;;20.50;99.90;;;;;;5050166;28;20566;-67
2021/07/12 01:07:59;;;;;;;12.60;11.70;;;20.50;99.90;;;;;;5048567;28;20702;-67
2021/07/12 01:10:30;;;;;;;12.30;11.40;;;20.50;99.90;;;;;;5048504;28;21209;-68
2021/07/12 01:13:21;;;;;;;11.47;10.57;;;20.50;99.90;;;;;;5049919;28;20630;-67
2021/07/12 01:16:01;;;;;;;12.30;11.20;;;20.40;99.90;;;;;;5048892;28;21169;-67
2021/07/12 01:18:38;;;;;;;11.70;10.90;;;20.40;99.90;;;;;;5048284;28;21181;-66
2021/07/12 01:21:05;;;;;;;11.43;10.63;;;20.40;99.90;;;;;;5055415;28;20718;-67
2021/07/12 01:24:01;;;;;;;12.73;11.77;;;20.40;99.90;;;;;;5048763;28;20697;-67
2021/07/12 01:27:13;;;;;;;11.70;10.90;;;20.30;99.90;;;;;;5045228;28;20599;-66
2021/07/12 01:30:03;;;;;;;12.07;11.07;;;20.30;99.90;;;;;;5029893;28;21112;-67
2021/07/12 01:32:50;;;;;;;11.50;10.60;;;20.20;99.90;;;;;;5048453;28;20595;-66
2021/07/12 01:35:36;;;;;;;11.43;10.43;;;20.20;99.90;;;;;;5049641;28;20590;-69
2021/07/12 01:38:15;;;;;;;11.63;10.73;;;20.20;99.90;;;;;;5047437;28;20645;-67
2021/07/12 01:40:49;;;;;;;12.00;11.10;;;20.10;99.90;;;;;;5029995;28;20547;-67
2021/07/12 01:43:32;;;;;;;12.13;11.23;;;20.10;99.90;;;;;;5052922;28;20634;-67
2021/07/12 01:46:22;;;;;;;11.80;10.90;;;20.10;99.90;;;;;;5049335;28;20748;-67
2021/07/12 01:49:14;;;;;;;11.70;10.87;;;20.10;99.90;;;;;;5038634;28;20658;-67
2021/07/12 01:52:08;;;;;;;11.87;10.97;;;20.10;99.90;;;;;;5049461;28;20561;-67
2021/07/12 01:54:58;;;;;;;12.30;11.30;;;20.00;99.90;;;;;;5037859;28;20654;-67
2021/07/12 01:57:32;;;;;;;12.40;11.40;;;20.00;99.90;;;;;;5048184;28;20654;-67
2021/07/12 02:00:10;;;;;;;12.83;11.83;;;19.90;99.90;;;;;;5047733;28;21172;-67
2021/07/12 02:02:43;;;;;;;12.60;11.60;;;19.90;99.90;;;;;;5049513;28;20634;-67
2021/07/12 02:05:24;;;;;;;13.10;12.10;;;19.80;99.90;;;;;;5049480;28;20675;-67
2021/07/12 02:07:55;;;;;;;12.97;11.90;;;19.90;99.90;;;;;;5045492;28;20630;-67
2021/07/12 02:10:26;;;;;;;12.90;11.80;;;19.80;99.90;;;;;;5049265;28;20569;-67
2021/07/12 02:13:00;;;;;;;12.50;11.60;;;19.70;99.90;;;;;;5049187;28;21192;-67
2021/07/12 02:15:26;;;;;;;12.17;11.17;;;19.70;99.90;;;;;;5048094;28;20721;-67
2021/07/12 02:17:53;;;;;;;12.27;11.37;;;19.70;99.90;;;;;;5047897;28;20669;-69
2021/07/12 02:20:32;;;;;;;12.87;11.73;;;19.60;99.90;;;;;;5049049;28;20689;-67
2021/07/12 02:23:01;;;;;;;13.03;12.03;;;19.60;99.90;;;;;;5049146;28;20594;-67
2021/07/12 02:25:27;;;;;;;13.97;12.67;;;19.60;99.90;;;;;;5047948;28;20702;-67
2021/07/12 02:27:59;;;;;;;12.53;11.63;;;19.60;99.90;;;;;;5048140;28;20645;-67
2021/07/12 02:30:29;;;;;;;13.80;12.70;;;19.50;99.90;;;;;;5048827;28;20583;-67
2021/07/12 02:33:02;;;;;;;13.80;12.70;;;19.50;99.90;;;;;;5047583;28;20686;-67
2021/07/12 02:35:28;;;;;;;12.73;11.73;;;19.50;99.90;;;;;;5048321;28;20609;-67
2021/07/12 02:37:57;;;;;;;12.20;11.20;;;19.40;99.90;;;;;;5048531;28;20758;-67
2021/07/12 02:40:24;;;;;;;12.93;11.97;;;19.40;99.90;;;;;;5048825;28;20575;-67
2021/07/12 02:42:53;;;;;;;11.53;10.73;;;19.40;99.90;;;;;;5047377;28;20656;-67
2021/07/12 02:45:21;;;;;;;13.10;12.00;;;19.40;99.90;;;;;;5048650;28;20652;-68
2021/07/12 02:47:55;;;;;;;12.53;11.63;;;19.40;99.90;;;;;;5048376;28;20644;-67
2021/07/12 02:50:21;;;;;;;13.13;12.13;;;19.40;99.90;;;;;;5047777;28;20618;-68
2021/07/12 02:53:01;;;;;;;13.27;12.20;;;19.30;99.90;;;;;;5048616;28;20649;-67
2021/07/12 02:55:30;;;;;;;12.73;11.70;;;19.30;99.90;;;;;;5047555;28;20720;-67
2021/07/12 02:57:58;;;;;;;12.30;11.40;;;19.20;99.90;;;;;;5048189;28;20654;-69
2021/07/12 03:00:26;;;;;;;12.93;11.93;;;19.20;99.90;;;;;;5046213;28;20614;-67
2021/07/12 03:02:51;;;;;;;12.70;11.70;;;19.20;99.90;;;;;;5046873;28;20682;-69
2021/07/12 03:05:17;;;;;;;12.23;11.33;;;19.10;99.90;;;;;;5040973;28;20626;-67
2021/07/12 03:07:49;;;;;;;12.20;11.30;;;19.10;99.90;;;;;;5038601;28;20309;-69
2021/07/12 03:10:18;;;;;;;12.97;12.03;;;19.10;99.90;;;;;;5048552;28;20208;-67
2021/07/12 03:13:07;;;;;;;13.20;12.07;;;19.00;99.90;;;;;;5048612;28;20708;-67
2021/07/12 03:15:43;;;;;;;12.70;11.80;;;19.00;99.90;;;;;;5047640;28;20685;-67
2021/07/12 03:18:31;;;;;;;13.53;12.13;;;19.00;99.90;;;;;;5052804;28;20614;-67
2021/07/12 03:21:01;;;;;;;13.17;12.07;;;19.00;99.90;;;;;;5050536;28;20625;-68
2021/07/12 03:23:44;;;;;;;13.73;12.63;;;18.90;99.90;;;;;;5052382;28;20607;-67
2021/07/12 03:26:15;;;;;;;13.63;12.63;;;18.90;99.90;;;;;;5051062;28;20594;-67
2021/07/12 03:28:44;;;;;;;12.13;11.20;;;18.80;99.90;;;;;;5051919;28;20562;-69
2021/07/12 03:31:12;;;;;;;12.20;11.30;;;18.80;99.90;;;;;;5052126;28;20678;-67
2021/07/12 03:33:39;;;;;;;12.43;11.53;;;18.80;99.90;;;;;;5057719;28;20643;-69
2021/07/12 03:36:13;;;;;;;13.13;12.10;;;18.80;99.90;;;;;;5051555;28;21215;-69
2021/07/12 03:38:39;;;;;;;13.37;12.30;;;18.80;99.90;;;;;;5051561;28;21098;-69
2021/07/12 03:41:07;;;;;;;12.80;11.80;;;18.80;99.90;;;;;;5051990;28;20585;-67
2021/07/12 03:43:40;;;;;;;12.17;11.27;;;18.80;99.90;;;;;;5050609;28;20638;-69
2021/07/12 03:46:08;;;;;;;12.43;11.47;;;18.70;99.90;;;;;;5051590;28;20637;-69
2021/07/12 03:48:45;;;;;;;12.40;11.43;;;18.80;99.90;;;;;;5051294;28;21171;-69
2021/07/12 03:51:15;;;;;;;13.40;12.40;;;18.70;99.90;;;;;;5051867;28;20563;-67
2021/07/12 03:56:16;;;;;;;12.20;11.30;;;18.70;99.90;;;;;;5052440;28;20674;-65
2021/07/12 03:58:45;;;;;;;12.97;11.97;;;18.70;99.90;;;;;;5060978;28;20666;-65
2021/07/12 04:01:21;;;;;;;13.20;12.20;;;18.70;99.90;;;;;;5061664;28;20649;-66
2021/07/12 04:03:51;;;;;;;12.60;11.60;;;18.70;99.90;;;;;;5069536;28;20596;-66
2021/07/12 04:06:25;;;;;;;13.27;12.17;;;18.70;99.90;;;;;;5055815;28;20615;-68
2021/07/12 04:08:51;;;;;;;13.83;12.70;;;18.70;99.90;;;;;;5035086;28;20602;-66
2021/07/12 04:11:21;;;;;;;12.77;11.80;;;18.70;99.90;;;;;;5057850;28;20612;-66
2021/07/12 04:13:47;;;;;;;12.97;12.00;;;18.70;99.90;;;;;;5072021;28;20603;-65
2021/07/12 04:16:15;;;;;;;13.37;12.17;;;18.70;99.90;;;;;;5071954;28;20630;-67
2021/07/12 04:18:41;;;;;;;13.33;12.23;;;18.70;99.90;;;;;;5058374;28;20690;-66
2021/07/12 04:21:07;;;;;;;13.60;12.50;;;18.80;99.90;;;;;;5035183;28;21226;-66
2021/07/12 04:23:35;;;;;;;12.20;11.30;;;18.80;99.90;;;;;;5052342;28;20169;-66
2021/07/12 04:26:01;;;;;;;12.10;11.00;;;18.80;99.90;;;;;;5062271;28;20220;-66
2021/07/12 04:28:26;;;;;;;12.83;11.73;;;18.80;99.90;;;;;;5071570;28;20614;-66
2021/07/12 04:30:54;;;;;;;12.67;11.67;;;18.90;99.90;;;;;;5071805;28;20191;-66
2021/07/12 04:33:22;;;;;;;11.83;10.93;;;18.90;99.90;;;;;;5070952;28;20187;-66
2021/07/12 04:35:50;;;;;;;13.43;12.43;;;18.90;99.90;;;;;;5070734;28;20602;-65
2021/07/12 04:38:16;;;;;;;12.33;11.43;;;18.90;99.90;;;;;;5043979;28;21182;-65
2021/07/12 04:40:47;;;;;;;12.83;11.83;;;19.00;99.90;;;;;;5070302;28;20710;-65
2021/07/12 04:43:16;;;;;;;13.40;12.40;;;19.00;99.90;;;;;;5052807;28;20625;-65
2021/07/12 04:45:42;;;;;;;12.47;11.47;;;19.10;99.90;;;;;;5053942;28;21181;-66
2021/07/12 04:48:09;;;;;;;12.90;11.80;;;19.10;99.90;;;;;;5078349;28;20620;-66
2021/07/12 04:50:35;;;;;;;12.90;11.90;;;19.10;99.90;;;;;;5072631;28;20188;-66
2021/07/12 04:53:01;;;;;;;12.33;11.43;;;19.20;99.90;;;;;;5053824;28;20651;-65
2021/07/12 04:55:26;;;;;;;12.43;11.53;;;19.20;99.90;;;;;;5052983;28;20223;-66
2021/07/12 04:57:52;;;;;;;13.93;12.83;;;19.30;99.90;;;;;;5079386;28;20219;-66
2021/07/12 05:00:20;;;;;;;12.73;11.70;;;19.30;99.90;;;;;;5057903;28;20188;-65
2021/07/12 05:02:51;;;;;;;12.73;11.73;;;19.40;99.90;;;;;;5064565;28;20212;-65
2021/07/12 05:05:17;;;;;;;12.90;11.60;;;19.40;99.90;;;;;;5052813;28;21066;-65
2021/07/12 05:07:42;;;;;;;14.10;12.90;;;19.50;99.90;;;;;;5069443;28;21156;-65
2021/07/12 05:10:12;;;;;;;13.30;12.00;;;19.50;99.90;;;;;;5053240;28;20647;-66
2021/07/12 05:12:38;;;;;;;12.80;11.90;;;19.60;99.90;;;;;;5052953;28;20180;-65
2021/07/12 05:15:09;;;;;;;13.30;12.20;;;19.70;99.90;;;;;;5069238;28;20649;-66
2021/07/12 05:17:36;;;;;;;12.33;11.40;;;19.70;99.90;;;;;;5054336;28;20715;-65
2021/07/12 05:20:07;;;;;;;12.70;11.40;;;19.70;99.90;;;;;;5051317;28;20654;-65
2021/07/12 05:22:33;;;;;;;12.77;11.67;;;19.80;99.90;;;;;;5051493;28;20905;-66
2021/07/12 05:25:08;;;;;;;13.43;12.23;;;19.90;99.90;;;;;;5053484;28;20629;-66
2021/07/12 05:27:36;;;;;;;12.67;11.67;;;19.90;99.90;;;;;;5060380;28;20640;-66
2021/07/12 05:30:06;;;;;;;11.90;11.00;;;19.90;99.90;;;;;;5062114;28;20601;-66
2021/07/12 05:32:32;;;;;;;11.50;10.70;;;20.00;99.90;;;;;;5050982;28;20582;-68
2021/07/12 05:34:57;;;;;;;12.53;11.53;;;20.00;99.90;;;;;;5052966;28;20641;-66
2021/07/12 05:37:25;;;;;;;13.10;11.90;;;20.10;99.90;;;;;;5061791;28;20211;-66
2021/07/12 05:39:51;;;;;;;11.63;10.77;;;20.10;99.90;;;;;;5050438;28;20255;-66
2021/07/12 05:42:19;;;;;;;13.20;12.13;;;20.20;99.90;;;;;;5056855;28;20680;-65
2021/07/12 05:44:50;;;;;;;12.53;11.47;;;20.30;99.90;;;;;;5069245;28;20199;-66
2021/07/12 05:47:17;;;;;;;12.43;11.40;;;20.30;99.90;;;;;;5070591;28;20645;-66
2021/07/12 05:49:43;;;;;;;12.20;11.20;;;20.40;99.90;;;;;;5076395;28;20609;-66
2021/07/12 05:52:11;;;;;;;11.90;10.70;;;20.50;99.90;;;;;;5067391;28;20717;-66
2021/07/12 05:54:37;;;;;;;12.80;11.77;;;20.50;99.90;;;;;;5074885;28;20223;-66
2021/07/12 05:57:05;;;;;;;12.30;11.40;;;20.60;99.90;;;;;;5071617;28;20657;-66
2021/07/12 05:59:33;;;;;;;12.03;11.13;;;20.60;99.90;;;;;;5069864;28;20211;-66
2021/07/12 06:01:58;;;;;;;13.37;12.37;;;20.70;99.90;;;;;;5070872;28;21075;-66
2021/07/12 06:04:24;;;;;;;12.07;11.07;;;20.80;99.90;;;;;;5038250;28;21248;-66
2021/07/12 06:06:49;;;;;;;11.43;10.63;;;20.90;99.90;;;;;;5057494;28;20282;-66
2021/07/12 06:09:15;;;;;;;11.40;10.60;;;21.00;99.90;;;;;;5053799;28;20279;-66
2021/07/12 06:11:41;;;;;;;12.07;11.17;;;21.00;99.90;;;;;;5065925;28;20192;-66
2021/07/12 06:14:07;;;;;;;11.67;10.87;;;21.10;99.90;;;;;;5056800;28;20222;-65
2021/07/12 06:16:32;;;;;;;12.27;11.27;;;21.10;99.90;;;;;;5069659;28;21001;-66
2021/07/12 06:18:58;;;;;;;12.37;11.47;;;21.20;99.90;;;;;;5050318;28;20209;-66
2021/07/12 06:21:25;;;;;;;11.97;11.10;;;21.20;99.90;;;;;;5056623;28;20192;-66
2021/07/12 06:23:50;;;;;;;12.90;11.90;;;21.30;99.90;;;;;;5049884;28;20242;-66
2021/07/12 06:26:16;;;;;;;11.70;10.90;;;21.30;99.90;;;;;;5048995;28;20618;-66
2021/07/12 06:28:42;;;;;;;12.67;11.53;;;21.30;99.90;;;;;;5074353;28;20259;-66
2021/07/12 06:31:10;;;;;;;12.33;11.40;;;21.30;99.90;;;;;;5076872;28;20195;-66
2021/07/12 06:33:35;;;;;;;12.17;11.27;;;21.40;99.90;;;;;;5070996;28;20240;-65
2021/07/12 06:36:01;;;;;;;12.07;11.17;;;21.50;99.90;;;;;;5068807;28;21184;-66
2021/07/12 06:38:27;;;;;;;11.50;10.63;;;21.60;99.90;;;;;;5050489;28;20433;-66
2021/07/12 06:40:52;;;;;;;14.53;13.43;;;21.60;99.90;;;;;;5050155;28;20609;-65
2021/07/12 06:43:18;;;;;;;13.57;12.43;;;21.70;99.90;;;;;;5051468;28;20218;-66
2021/07/12 06:45:43;;;;;;;11.93;11.03;;;21.80;99.90;;;;;;5067933;28;20294;-65
2021/07/12 06:48:10;;;;;;;12.07;11.17;;;21.80;99.90;;;;;;5069101;28;20202;-65
2021/07/12 06:50:36;;;;;;;11.60;10.73;;;21.90;99.90;;;;;;5068941;28;20601;-65
2021/07/12 06:53:01;;;;;;;11.60;10.70;;;21.90;99.90;;;;;;5069210;28;21069;-66
2021/07/12 06:55:28;;;;;;;12.27;11.20;;;22.00;99.90;;;;;;5070403;28;20699;-66
2021/07/12 06:57:54;;;;;;;12.47;11.50;;;22.10;99.90;;;;;;5043222;28;20230;-66
2021/07/12 07:00:21;;;;;;;12.73;11.73;;;22.20;99.90;;;;;;5047828;28;20602;-66
2021/07/12 07:02:46;;;;;;;11.50;10.70;;;22.20;99.90;;;;;;5072269;28;20669;-66
2021/07/12 07:05:12;;;;;;;13.13;12.10;;;22.20;99.90;;;;;;5054193;28;20634;-66
2021/07/12 07:07:37;;;;;;;11.13;10.33;;;22.30;99.90;;;;;;5041398;28;20286;-66
2021/07/12 07:10:08;;;;;;;12.10;11.20;;;22.40;99.90;;;;;;5057026;28;20361;-66
2021/07/12 07:12:34;;;;;;;12.37;11.47;;;22.40;99.90;;;;;;5055996;28;20276;-66
2021/07/12 07:15:00;;;;;;;12.87;11.57;;;22.50;99.90;;;;;;5072360;28;21041;-66
2021/07/12 07:17:25;;;;;;;12.97;12.07;;;22.60;99.90;;;;;;5065335;28;20657;-65
2021/07/12 07:19:54;;;;;;;12.50;11.50;;;22.70;99.90;;;;;;5060665;28;20183;-65
2021/07/12 07:22:20;;;;;;;12.17;11.37;;;22.70;99.90;;;;;;5054989;28;20237;-66
2021/07/12 07:24:45;;;;;;;12.17;11.37;;;22.80;99.90;;;;;;5072662;28;20633;-66
2021/07/12 07:27:11;;;;;;;11.30;10.37;;;22.90;99.90;;;;;;5063269;28;20561;-66
2021/07/12 07:29:37;;;;;;;12.10;11.03;;;23.00;99.90;;;;;;5056812;28;20522;-66
2021/07/12 07:32:03;;;;;;;12.27;11.40;;;23.10;99.90;;;;;;5073077;28;20664;-66
2021/07/12 07:34:29;;;;;;;11.50;10.80;;;23.10;99.90;;;;;;5064769;28;20654;-66
2021/07/12 07:36:56;;;;;;;11.83;10.93;;;23.20;99.90;;;;;;5060858;28;21206;-65
2021/07/12 07:39:22;;;;;;;11.43;10.63;;;23.30;99.90;;;;;;5058937;28;20179;-66
2021/07/12 07:41:48;;;;;;;11.20;10.40;;;23.40;99.90;;;;;;5072642;28;20688;-66
2021/07/12 07:44:14;;;;;;;12.27;11.30;;;23.40;99.90;;;;;;5063981;28;20840;-66
2021/07/12 07:46:39;;;;;;;11.83;10.63;;;23.50;99.90;;;;;;5064721;28;20249;-66
2021/07/12 07:49:07;;;;;;;10.50;9.77;;;23.60;99.90;;;;;;5054222;28;20212;-66
2021/07/12 07:51:34;;;;;;;11.33;10.53;;;23.70;99.90;;;;;;5055594;28;20283;-69
2021/07/12 07:54:00;;;;;;;11.33;10.43;;;23.80;99.90;;;;;;5046671;28;20638;-66
2021/07/12 07:56:25;;;;;;;12.10;11.20;;;23.80;99.90;;;;;;5052410;28;20657;-66
2021/07/12 07:58:53;;;;;;;11.53;10.63;;;23.90;99.90;;;;;;5063155;28;20191;-66
2021/07/12 08:01:20;;;;;;;12.40;11.33;;;23.90;99.90;;;;;;5061513;28;20558;-66
2021/07/12 08:03:45;;;;;;;11.67;10.87;;;24.00;99.90;;;;;;5052608;28;20594;-66
2021/07/12 08:06:11;;;;;;;11.70;10.90;;;24.10;99.90;;;;;;5058417;28;20602;-66
2021/07/12 08:08:36;;;;;;;11.67;10.93;;;24.20;99.90;;;;;;5062210;28;20215;-66
2021/07/12 08:11:02;;;;;;;11.53;10.70;;;24.20;99.90;;;;;;5061057;28;20192;-66
2021/07/12 08:13:28;;;;;;;11.43;10.53;;;24.40;99.90;;;;;;5053880;28;20187;-66
2021/07/12 08:15:56;;;;;;;11.10;10.30;;;24.50;99.90;;;;;;5063093;28;20207;-66
2021/07/12 08:18:22;;;;;;;12.17;11.27;;;24.60;99.90;;;;;;5071034;28;20632;-66
2021/07/12 08:20:48;;;;;;;11.50;10.63;;;24.60;99.90;;;;;;5070924;28;20716;-66
2021/07/12 08:23:14;;;;;;;11.47;10.70;;;24.60;99.90;;;;;;5070017;28;20183;-65
2021/07/12 08:25:41;;;;;;;11.87;11.07;;;24.60;99.90;;;;;;5053403;28;20636;-66
2021/07/12 08:28:06;;;;;;;11.70;10.90;;;24.70;99.90;;;;;;5070994;28;20187;-66
2021/07/12 08:30:32;;;;;;;11.00;10.20;;;24.80;99.90;;;;;;5055582;28;20667;-66
2021/07/12 08:32:58;;;;;;;11.53;10.83;;;24.90;99.90;;;;;;5053711;28;20588;-66
2021/07/12 08:35:24;;;;;;;11.30;10.60;;;25.00;99.90;;;;;;5065000;28;20663;-66
2021/07/12 08:37:50;;;;;;;11.83;10.93;;;25.10;99.90;;;;;;5054555;28;20222;-66
2021/07/12 08:40:19;;;;;;;11.57;10.77;;;25.10;99.90;;;;;;5066952;28;20295;-66
2021/07/12 08:42:45;;;;;;;11.10;10.40;;;25.20;99.90;;;;;;5052852;28;20195;-66
2021/07/12 08:45:11;;;;;;;11.20;10.40;;;25.30;99.90;;;;;;5072063;28;20724;-66
2021/07/12 08:47:37;;;;;;;11.17;10.50;;;25.40;99.90;;;;;;5075700;28;20621;-66
2021/07/12 08:50:04;;;;;;;12.50;11.50;;;25.40;99.90;;;;;;5087103;28;20641;-66
2021/07/12 08:52:30;;;;;;;11.10;10.40;;;25.50;99.90;;;;;;5078325;28;20187;-66
2021/07/12 08:54:55;;;;;;;12.10;11.03;;;25.60;99.90;;;;;;5054689;28;20771;-66
2021/07/12 08:57:21;;;;;;;10.80;10.10;;;25.80;99.90;;;;;;5054304;28;20223;-66
2021/07/12 08:59:47;;;;;;;12.17;11.20;;;25.80;99.90;;;;;;5056146;28;20666;-66
2021/07/12 09:02:19;;;;;;;10.37;9.57;;;25.90;99.90;;;;;;5057959;28;20271;-66
2021/07/12 09:04:47;;;;;;;11.43;10.73;;;26.10;99.90;;;;;;5070293;28;20252;-66
2021/07/12 09:07:25;;;;;;;10.80;10.10;;;26.20;99.90;;;;;;5045709;28;21088;-65
2021/07/12 09:10:14;;;;;;;11.20;10.40;;;26.20;99.90;;;;;;5054404;28;20594;-66
2021/07/12 09:12:45;;;;;;;10.47;9.83;;;26.30;99.90;;;;;;5068681;28;20665;-66
2021/07/12 09:15:13;;;;;;;10.70;10.00;;;26.30;99.90;;;;;;5067074;28;20641;-65
2021/07/12 09:17:42;;;;;;;11.10;10.30;;;26.30;99.90;;;;;;5047783;28;20653;-66
2021/07/12 09:20:10;;;;;;;11.10;10.40;;;26.40;99.90;;;;;;5066791;28;20722;-66
2021/07/12 09:22:41;;;;;;;11.07;10.37;;;26.50;99.90;;;;;;5051560;28;20617;-66
2021/07/12 09:25:11;;;;;;;10.10;9.50;;;26.60;99.90;;;;;;5051888;28;20667;-66
2021/07/12 09:27:38;;;;;;;10.60;9.80;;;26.70;99.90;;;;;;5053311;28;20599;-66
2021/07/12 09:30:09;;;;;;;9.50;8.90;;;26.80;99.90;;;;;;5053330;28;20623;-66
2021/07/12 09:32:36;;;;;;;9.27;8.57;;;26.90;99.90;;;;;;5040615;28;20619;-66
2021/07/12 09:35:07;;;;;;;9.03;8.43;;;26.90;99.90;;;;;;5057416;28;20629;-66
2021/07/12 09:37:35;;;;;;;9.13;8.53;;;26.90;99.90;;;;;;5048590;28;20702;-66
2021/07/12 09:40:03;;;;;;;9.07;8.47;;;26.90;99.90;;;;;;5045751;28;20599;-66
2021/07/12 09:42:33;;;;;;;8.90;8.30;;;27.10;99.90;;;;;;5052206;28;21012;-66
2021/07/12 09:45:07;;;;;;;9.40;8.90;;;26.90;99.90;;;;;;5053895;28;20637;-66
2021/07/12 09:47:35;;;;;;;9.50;9.00;;;27.00;99.90;;;;;;5061014;28;20720;-66
2021/07/12 09:50:10;;;;;;;9.07;8.47;;;27.00;99.90;;;;;;5063201;28;20598;-66
2021/07/12 09:53:04;;;;;;;8.80;8.30;;;27.10;99.90;;;;;;5056297;28;20569;-66
2021/07/12 09:55:34;;;;;;;9.60;8.90;;;27.10;99.90;;;;;;5073095;22;20682;-68
2021/07/12 09:58:11;;;;;;;10.20;9.30;;;27.20;99.90;;;;;;5063842;28;20637;-68
2021/07/12 10:00:57;;;;;;;9.37;8.70;;;27.30;99.90;;;;;;5066662;28;20974;-65
2021/07/12 10:03:23;;;;;;;10.00;9.30;;;27.40;99.90;;;;;;5068244;28;21421;-66
2021/07/12 10:05:51;;;;;;;9.37;8.67;;;27.50;99.90;;;;;;5070763;28;20617;-65
2021/07/12 10:08:17;;;;;;;10.40;9.70;;;27.70;99.90;;;;;;5074769;28;20186;-66
2021/07/12 10:10:43;;;;;;;10.30;9.60;;;27.70;99.90;;;;;;5054006;28;20689;-65
2021/07/12 10:13:09;;;;;;;9.80;9.20;;;27.80;99.90;;;;;;5068393;28;20188;-65
2021/07/12 10:15:35;;;;;;;10.23;9.63;;;27.90;99.90;;;;;;5070873;28;20633;-65
2021/07/12 10:18:02;;;;;;;10.50;9.83;;;28.00;99.90;;;;;;5069005;28;20652;-66
2021/07/12 10:20:33;;;;;;;9.57;9.00;;;28.10;99.90;;;;;;5066961;28;21227;-65
2021/07/12 10:23:01;;;;;;;10.13;9.53;;;28.20;99.90;;;;;;5067604;28;20995;-66
2021/07/12 10:25:29;;;;;;;9.83;9.13;;;28.20;99.90;;;;;;5068123;28;20639;-66
2021/07/12 10:27:59;;;;;;;9.90;9.20;;;28.20;99.90;;;;;;5040786;28;21190;-66
2021/07/12 10:30:33;;;;;;;10.43;9.73;;;28.10;99.90;;;;;;5067089;28;20593;-66
2021/07/12 10:33:05;;;;;;;10.40;9.80;;;28.10;99.90;;;;;;5066728;28;20713;-66
2021/07/12 10:35:53;;;;;;;10.17;9.57;;;28.00;99.90;;;;;;5071231;28;20630;-65
2021/07/12 10:38:45;;;;;;;10.33;9.63;;;28.00;99.90;;;;;;5068451;28;20684;-66
2021/07/12 10:41:23;;;;;;;9.60;9.10;;;27.90;99.90;;;;;;5070243;28;20597;-66
2021/07/12 10:43:53;;;;;;;9.33;8.83;;;27.90;99.90;;;;;;5068675;28;21150;-66
2021/07/12 10:46:28;;;;;;;10.33;9.73;;;27.70;99.90;;;;;;5069171;28;20779;-65
2021/07/12 10:48:59;;;;;;;10.73;9.93;;;27.70;99.90;;;;;;5070883;28;21151;-67
2021/07/12 10:51:40;;;;;;;10.13;9.43;;;27.80;99.90;;;;;;5064476;28;20602;-66
2021/07/12 10:54:11;;;;;;;10.10;9.60;;;27.90;99.90;;;;;;5069357;28;21007;-66
2021/07/12 10:56:50;;;;;;;10.23;9.40;;;27.80;99.90;;;;;;5065864;28;20657;-66
2021/07/12 10:59:33;;;;;;;12.33;9.70;;;27.90;99.90;;;;;;5069351;28;20581;-66
2021/07/12 11:02:00;;;;;;;10.33;9.73;;;27.90;99.90;;;;;;5069467;28;20594;-66
2021/07/12 11:04:34;;;;;;;10.23;9.60;;;27.90;99.90;;;;;;5066349;28;20633;-66
2021/07/12 11:07:03;;;;;;;9.83;9.13;;;28.00;99.90;;;;;;5052305;28;20681;-66
2021/07/12 11:09:48;;;;;;;9.23;8.73;;;28.10;99.90;;;;;;5052647;28;20601;-66
2021/07/12 11:12:39;;;;;;;9.23;8.63;;;28.30;99.90;;;;;;5069446;28;20617;-66
2021/07/12 11:15:16;;;;;;;8.80;8.20;;;28.30;99.90;;;;;;5068802;28;21172;-67
2021/07/12 11:17:48;;;;;;;8.53;8.03;;;28.40;99.90;;;;;;5059104;28;21007;-66
2021/07/12 11:20:14;;;;;;;8.10;7.70;;;28.50;99.90;;;;;;5049747;28;20680;-66
2021/07/12 11:22:53;;;;;;;9.13;8.53;;;28.60;99.90;;;;;;5052971;28;21274;-65
2021/07/12 11:25:40;;;;;;;9.10;8.60;;;28.70;99.90;;;;;;5063241;28;20247;-65
2021/07/12 11:28:09;;;;;;;10.23;9.43;;;28.80;99.90;;;;;;5066027;28;20598;-68
2021/07/12 11:30:35;;;;;;;9.80;9.10;;;28.80;99.90;;;;;;5062132;28;20727;-65
2021/07/12 11:33:02;;;;;;;9.47;8.87;;;28.80;99.90;;;;;;5070519;28;20590;-65
2021/07/12 11:35:27;;;;;;;8.80;8.30;;;28.80;99.90;;;;;;5065106;28;20634;-65
2021/07/12 11:38:03;;;;;;;9.23;8.40;;;28.80;99.90;;;;;;5070154;28;20661;-65
2021/07/12 11:40:29;;;;;;;9.00;8.50;;;28.90;99.90;;;;;;5061775;28;20275;-65
2021/07/12 11:42:54;;;;;;;9.27;8.67;;;29.00;99.90;;;;;;5071766;28;20693;-65
2021/07/12 11:45:23;;;;;;;8.37;7.97;;;29.00;99.90;;;;;;5068248;28;20231;-65
2021/07/12 11:47:57;;;;;;;8.80;8.10;;;29.10;99.90;;;;;;5058767;28;20568;-65
2021/07/12 11:50:30;;;;;;;8.53;8.13;;;29.30;99.90;;;;;;5073897;28;20654;-65
2021/07/12 11:52:58;;;;;;;9.20;8.60;;;29.40;99.90;;;;;;5067846;28;20965;-64
2021/07/12 11:55:32;;;;;;;8.83;8.23;;;29.40;99.90;;;;;;5072673;28;20660;-66
2021/07/12 11:58:02;;;;;;;8.63;8.13;;;29.40;99.90;;;;;;5043654;28;21098;-66
2021/07/12 12:00:33;;;;;;;8.80;8.30;;;29.30;99.90;;;;;;5055775;28;20593;-67
2021/07/12 12:03:02;;;;;;;9.33;8.63;;;29.20;99.90;;;;;;5072515;28;21004;-66
2021/07/12 12:05:29;;;;;;;7.70;7.30;;;29.20;99.90;;;;;;5069612;28;21112;-65
2021/07/12 12:07:59;;;;;;;7.90;7.40;;;29.20;99.90;;;;;;5079716;28;20608;-66
2021/07/12 12:10:38;;;;;;;8.37;7.87;;;29.30;99.90;;;;;;5076516;28;20590;-67
2021/07/12 12:13:12;;;;;;;8.40;8.00;;;29.40;99.90;;;;;;5057474;28;20596;-65
2021/07/12 12:15:41;;;;;;;8.70;8.30;;;29.50;99.90;;;;;;5052351;28;20658;-66
2021/07/12 12:18:11;;;;;;;8.67;8.10;;;29.50;99.90;;;;;;5072920;28;20759;-65
2021/07/12 12:20:45;;;;;;;8.90;8.40;;;29.50;99.90;;;;;;5050369;28;21027;-67
2021/07/12 12:23:16;;;;;;;8.47;8.07;;;29.40;99.90;;;;;;5054585;28;20606;-65
2021/07/12 12:25:41;;;;;;;8.70;8.10;;;29.30;99.90;;;;;;5071387;28;20629;-65
2021/07/12 12:28:07;;;;;;;8.90;8.40;;;29.40;99.90;;;;;;5072857;28;20952;-66
2021/07/12 12:30:35;;;;;;;8.47;8.07;;;29.40;99.90;;;;;;5070257;28;20271;-65
2021/07/12 12:33:01;;;;;;;8.77;8.27;;;29.40;99.90;;;;;;5073193;28;20192;-65
2021/07/12 12:35:29;;;;;;;8.40;8.00;;;29.50;99.90;;;;;;5072449;28;20658;-65
2021/07/12 12:38:08;;;;;;;8.47;8.00;;;29.50;99.90;;;;;;5061280;28;20797;-65
2021/07/12 12:40:34;;;;;;;9.30;8.60;;;29.40;99.90;;;;;;5064539;28;20593;-65
2021/07/12 12:43:14;;;;;;;9.13;8.53;;;29.20;99.90;;;;;;5073101;28;20758;-65
2021/07/12 12:45:52;;;;;;;8.57;8.07;;;29.20;99.90;;;;;;5072126;28;20230;-65
2021/07/12 12:48:34;;;;;;;8.87;8.37;;;29.00;99.90;;;;;;5061797;28;20590;-67